sensor_id;sensor_type;location;lat;lon;timestamp;temperature;humidity
17170;DHT22;8700;48.222;16.342;2023-04-09T00:01:41;7.90;99.90
17170;DHT22;8700;48.222;16.342;2023-04-09T00:05:02;7.80;99.90
17170;DHT22;8700;48.222;16.342;2023-04-09T00:08:24;7.90;99.90
17170;DHT22;8700;48.222;16.342;2023-04-09T00:11:46;8.00;99.90
17170;DHT22;8700;48.222;16.342;2023-04-09T00:15:08;8.00;99.90
17170;DHT22;8700;48.222;16.342;2023-04-09T00:18:29;7.90;99.90
17170;DHT22;8700;48.222;16.342;2023-04-09T00:21:50;7.80;99.90
17170;DHT22;8700;48.222;16.342;2023-04-09T00:25:12;7.70;99.90
17170;DHT22;8700;48.222;16.342;2023-04-09T00:28:35;7.80;99.90
17170;DHT22;8700;48.222;16.342;2023-04-09T00:31:56;7.80;99.90
17170;DHT22;8700;48.222;16.342;2023-04-09T00:35:17;7.80;99.90
17170;DHT22;8700;48.222;16.342;2023-04-09T00:38:38;7.80;99.90
17170;DHT22;8700;48.222;16.342;2023-04-09T00:42:00;7.60;99.90
17170;DHT22;8700;48.222;16.342;2023-04-09T00:45:23;7.70;99.90
17170;DHT22;8700;48.222;16.342;2023-04-09T00:48:44;7.60;99.90
17170;DHT22;8700;48.222;16.342;2023-04-09T00:52:06;7.50;99.90
17170;DHT22;8700;48.222;16.342;2023-04-09T00:55:28;7.70;99.90
17170;DHT22;8700;48.222;16.342;2023-04-09T00:58:50;7.70;99.90
17170;DHT22;8700;48.222;16.342;2023-04-09T01:02:12;7.70;99.90
17170;DHT22;8700;48.222;16.342;2023-04-09T01:05:40;7.50;99.90
17170;DHT22;8700;48.222;16.342;2023-04-09T01:09:08;7.50;99.90
17170;DHT22;8700;48.222;16.342;2023-04-09T01:12:35;7.60;99.90
17170;DHT22;8700;48.222;16.342;2023-04-09T01:16:00;7.40;99.90
17170;DHT22;8700;48.222;16.342;2023-04-09T01:19:36;7.30;99.90
17170;DHT22;8700;48.222;16.342;2023-04-09T01:23:06;7.30;99.90
17170;DHT22;8700;48.222;16.342;2023-04-09T01:26:40;7.30;99.90
17170;DHT22;8700;48.222;16.342;2023-04-09T01:30:06;7.40;99.90
17170;DHT22;8700;48.222;16.342;2023-04-09T01:33:30;7.30;99.90
17170;DHT22;8700;48.222;16.342;2023-04-09T01:36:56;7.20;99.90
17170;DHT22;8700;48.222;16.342;2023-04-09T01:40:18;7.30;99.90
17170;DHT22;8700;48.222;16.342;2023-04-09T01:43:40;7.10;99.90
17170;DHT22;8700;48.222;16.342;2023-04-09T01:47:03;7.00;99.90
17170;DHT22;8700;48.222;16.342;2023-04-09T01:50:25;7.10;99.90
17170;DHT22;8700;48.222;16.342;2023-04-09T01:53:47;7.20;99.90
17170;DHT22;8700;48.222;16.342;2023-04-09T01:57:08;7.40;99.90
17170;DHT22;8700;48.222;16.342;2023-04-09T02:00:34;7.50;99.90
17170;DHT22;8700;48.222;16.342;2023-04-09T02:03:59;7.50;99.90
17170;DHT22;8700;48.222;16.342;2023-04-09T02:07:27;7.30;99.90
17170;DHT22;8700;48.222;16.342;2023-04-09T02:10:57;7.10;99.90
17170;DHT22;8700;48.222;16.342;2023-04-09T02:14:19;7.00;99.90
17170;DHT22;8700;48.222;16.342;2023-04-09T02:17:42;7.00;99.90
17170;DHT22;8700;48.222;16.342;2023-04-09T02:21:05;6.90;99.90
17170;DHT22;8700;48.222;16.342;2023-04-09T02:24:27;6.70;99.90
17170;DHT22;8700;48.222;16.342;2023-04-09T02:27:48;6.60;99.90
17170;DHT22;8700;48.222;16.342;2023-04-09T02:31:09;6.70;99.90
17170;DHT22;8700;48.222;16.342;2023-04-09T02:34:31;6.70;99.90
17170;DHT22;8700;48.222;16.342;2023-04-09T02:37:53;6.70;99.90
17170;DHT22;8700;48.222;16.342;2023-04-09T02:41:15;6.50;99.90
17170;DHT22;8700;48.222;16.342;2023-04-09T02:44:36;6.60;99.90
17170;DHT22;8700;48.222;16.342;2023-04-09T02:47:57;6.80;99.90
17170;DHT22;8700;48.222;16.342;2023-04-09T02:51:19;7.00;99.90
17170;DHT22;8700;48.222;16.342;2023-04-09T02:54:41;7.00;99.90
17170;DHT22;8700;48.222;16.342;2023-04-09T02:58:03;7.00;99.90
17170;DHT22;8700;48.222;16.342;2023-04-09T03:01:24;6.90;99.90
17170;DHT22;8700;48.222;16.342;2023-04-09T03:04:45;7.00;99.90
17170;DHT22;8700;48.222;16.342;2023-04-09T03:08:06;6.90;99.90
17170;DHT22;8700;48.222;16.342;2023-04-09T03:11:29;7.00;99.90
17170;DHT22;8700;48.222;16.342;2023-04-09T03:14:50;7.00;99.90
17170;DHT22;8700;48.222;16.342;2023-04-09T03:18:11;6.80;99.90
17170;DHT22;8700;48.222;16.342;2023-04-09T03:21:33;6.90;99.90
17170;DHT22;8700;48.222;16.342;2023-04-09T03:24:55;7.00;99.90
17170;DHT22;8700;48.222;16.342;2023-04-09T03:28:17;7.10;99.90
17170;DHT22;8700;48.222;16.342;2023-04-09T03:31:38;7.10;99.90
17170;DHT22;8700;48.222;16.342;2023-04-09T03:35:00;7.10;99.90
17170;DHT22;8700;48.222;16.342;2023-04-09T03:38:21;7.10;99.90
17170;DHT22;8700;48.222;16.342;2023-04-09T03:41:42;7.10;99.90
17170;DHT22;8700;48.222;16.342;2023-04-09T03:45:05;7.20;99.90
17170;DHT22;8700;48.222;16.342;2023-04-09T03:48:27;7.10;99.90
17170;DHT22;8700;48.222;16.342;2023-04-09T03:51:48;7.10;99.90
17170;DHT22;8700;48.222;16.342;2023-04-09T03:55:09;7.00;99.90
17170;DHT22;8700;48.222;16.342;2023-04-09T03:58:30;7.10;99.90
17170;DHT22;8700;48.222;16.342;2023-04-09T04:01:53;7.10;99.90
17170;DHT22;8700;48.222;16.342;2023-04-09T04:05:14;7.00;99.90
17170;DHT22;8700;48.222;16.342;2023-04-09T04:08:36;6.90;99.90
17170;DHT22;8700;48.222;16.342;2023-04-09T04:11:57;7.00;99.90
17170;DHT22;8700;48.222;16.342;2023-04-09T04:15:18;6.90;99.90
17170;DHT22;8700;48.222;16.342;2023-04-09T04:18:41;7.00;99.90
17170;DHT22;8700;48.222;16.342;2023-04-09T04:22:02;6.90;99.90
17170;DHT22;8700;48.222;16.342;2023-04-09T04:25:23;6.90;99.90
17170;DHT22;8700;48.222;16.342;2023-04-09T04:28:44;6.80;99.90
17170;DHT22;8700;48.222;16.342;2023-04-09T04:32:05;6.90;99.90
17170;DHT22;8700;48.222;16.342;2023-04-09T04:35:28;6.90;99.90
17170;DHT22;8700;48.222;16.342;2023-04-09T04:38:49;7.00;99.90
17170;DHT22;8700;48.222;16.342;2023-04-09T04:42:10;7.10;99.90
17170;DHT22;8700;48.222;16.342;2023-04-09T04:45:31;7.10;99.90
17170;DHT22;8700;48.222;16.342;2023-04-09T04:48:53;7.10;99.90
17170;DHT22;8700;48.222;16.342;2023-04-09T04:52:15;7.20;99.90
17170;DHT22;8700;48.222;16.342;2023-04-09T04:55:37;7.40;99.90
17170;DHT22;8700;48.222;16.342;2023-04-09T04:58:59;7.50;99.90
17170;DHT22;8700;48.222;16.342;2023-04-09T05:02:21;7.50;99.90
17170;DHT22;8700;48.222;16.342;2023-04-09T05:05:42;7.50;99.90
17170;DHT22;8700;48.222;16.342;2023-04-09T05:09:05;7.50;99.90
17170;DHT22;8700;48.222;16.342;2023-04-09T05:12:26;7.40;99.90
17170;DHT22;8700;48.222;16.342;2023-04-09T05:15:47;7.40;99.90
17170;DHT22;8700;48.222;16.342;2023-04-09T05:19:08;7.50;99.90
17170;DHT22;8700;48.222;16.342;2023-04-09T05:22:30;7.60;99.90
17170;DHT22;8700;48.222;16.342;2023-04-09T05:25:52;7.50;99.90
17170;DHT22;8700;48.222;16.342;2023-04-09T05:29:13;7.70;99.90
17170;DHT22;8700;48.222;16.342;2023-04-09T05:32:35;7.80;99.90
17170;DHT22;8700;48.222;16.342;2023-04-09T05:35:57;7.80;99.90
17170;DHT22;8700;48.222;16.342;2023-04-09T05:39:18;8.00;99.90
17170;DHT22;8700;48.222;16.342;2023-04-09T05:42:41;8.10;99.90
17170;DHT22;8700;48.222;16.342;2023-04-09T05:46:02;8.20;99.90
17170;DHT22;8700;48.222;16.342;2023-04-09T05:49:23;8.20;99.90
17170;DHT22;8700;48.222;16.342;2023-04-09T05:52:45;8.10;99.90
17170;DHT22;8700;48.222;16.342;2023-04-09T05:56:12;8.10;99.90
17170;DHT22;8700;48.222;16.342;2023-04-09T05:59:35;8.20;99.90
17170;DHT22;8700;48.222;16.342;2023-04-09T06:02:56;8.30;99.90
17170;DHT22;8700;48.222;16.342;2023-04-09T06:06:17;8.40;99.90
17170;DHT22;8700;48.222;16.342;2023-04-09T06:09:39;8.60;99.90
17170;DHT22;8700;48.222;16.342;2023-04-09T06:13:06;8.90;99.90
17170;DHT22;8700;48.222;16.342;2023-04-09T06:16:34;8.90;99.90
17170;DHT22;8700;48.222;16.342;2023-04-09T06:19:55;8.90;99.90
17170;DHT22;8700;48.222;16.342;2023-04-09T06:23:16;8.90;99.90
17170;DHT22;8700;48.222;16.342;2023-04-09T06:26:37;8.60;99.90
17170;DHT22;8700;48.222;16.342;2023-04-09T06:29:58;8.60;99.90
17170;DHT22;8700;48.222;16.342;2023-04-09T06:33:21;8.70;99.90
17170;DHT22;8700;48.222;16.342;2023-04-09T06:36:42;8.90;99.90
17170;DHT22;8700;48.222;16.342;2023-04-09T06:40:05;8.90;99.90
17170;DHT22;8700;48.222;16.342;2023-04-09T06:43:26;8.80;99.90
17170;DHT22;8700;48.222;16.342;2023-04-09T06:46:47;8.80;99.90
17170;DHT22;8700;48.222;16.342;2023-04-09T06:50:10;8.90;99.90
17170;DHT22;8700;48.222;16.342;2023-04-09T06:53:31;8.90;99.90
17170;DHT22;8700;48.222;16.342;2023-04-09T06:56:52;9.00;99.90
17170;DHT22;8700;48.222;16.342;2023-04-09T07:00:13;9.40;99.90
17170;DHT22;8700;48.222;16.342;2023-04-09T07:03:35;9.50;99.90
17170;DHT22;8700;48.222;16.342;2023-04-09T07:06:57;9.90;99.90
17170;DHT22;8700;48.222;16.342;2023-04-09T07:10:19;10.10;99.90
17170;DHT22;8700;48.222;16.342;2023-04-09T07:13:40;10.20;99.90
17170;DHT22;8700;48.222;16.342;2023-04-09T07:17:01;10.30;99.90
17170;DHT22;8700;48.222;16.342;2023-04-09T07:20:22;10.50;99.90
17170;DHT22;8700;48.222;16.342;2023-04-09T07:23:45;10.40;99.90
17170;DHT22;8700;48.222;16.342;2023-04-09T07:27:06;10.60;99.90
17170;DHT22;8700;48.222;16.342;2023-04-09T07:30:28;10.50;99.90
17170;DHT22;8700;48.222;16.342;2023-04-09T07:33:50;10.10;99.90
17170;DHT22;8700;48.222;16.342;2023-04-09T07:37:11;9.80;99.90
17170;DHT22;8700;48.222;16.342;2023-04-09T07:40:34;9.70;99.90
17170;DHT22;8700;48.222;16.342;2023-04-09T07:43:56;9.60;99.90
17170;DHT22;8700;48.222;16.342;2023-04-09T07:47:18;9.70;99.90
17170;DHT22;8700;48.222;16.342;2023-04-09T07:50:39;9.90;99.90
17170;DHT22;8700;48.222;16.342;2023-04-09T07:54:00;9.90;99.90
17170;DHT22;8700;48.222;16.342;2023-04-09T07:57:23;9.80;99.90
17170;DHT22;8700;48.222;16.342;2023-04-09T08:00:45;9.80;99.90
17170;DHT22;8700;48.222;16.342;2023-04-09T08:04:08;10.00;99.90
17170;DHT22;8700;48.222;16.342;2023-04-09T08:07:29;10.20;99.90
17170;DHT22;8700;48.222;16.342;2023-04-09T08:10:51;10.30;99.90
17170;DHT22;8700;48.222;16.342;2023-04-09T08:14:14;10.30;99.90
17170;DHT22;8700;48.222;16.342;2023-04-09T08:17:35;10.20;99.90
17170;DHT22;8700;48.222;16.342;2023-04-09T08:20:57;10.30;99.90
17170;DHT22;8700;48.222;16.342;2023-04-09T08:24:18;10.20;99.90
17170;DHT22;8700;48.222;16.342;2023-04-09T08:27:39;10.30;99.90
17170;DHT22;8700;48.222;16.342;2023-04-09T08:31:01;10.30;99.90
17170;DHT22;8700;48.222;16.342;2023-04-09T08:34:23;10.50;99.90
17170;DHT22;8700;48.222;16.342;2023-04-09T08:37:44;10.70;99.90
17170;DHT22;8700;48.222;16.342;2023-04-09T08:41:05;11.10;99.90
17170;DHT22;8700;48.222;16.342;2023-04-09T08:44:27;11.30;99.90
17170;DHT22;8700;48.222;16.342;2023-04-09T08:47:51;11.10;99.90
17170;DHT22;8700;48.222;16.342;2023-04-09T08:51:13;11.40;99.90
17170;DHT22;8700;48.222;16.342;2023-04-09T08:54:35;11.60;99.90
17170;DHT22;8700;48.222;16.342;2023-04-09T08:57:58;11.60;99.90
17170;DHT22;8700;48.222;16.342;2023-04-09T09:01:20;11.50;99.90
17170;DHT22;8700;48.222;16.342;2023-04-09T09:04:47;11.40;99.90
17170;DHT22;8700;48.222;16.342;2023-04-09T09:08:10;11.60;99.90
17170;DHT22;8700;48.222;16.342;2023-04-09T09:11:31;11.80;99.90
17170;DHT22;8700;48.222;16.342;2023-04-09T09:14:53;11.70;99.90
17170;DHT22;8700;48.222;16.342;2023-04-09T09:18:14;11.50;99.90
17170;DHT22;8700;48.222;16.342;2023-04-09T09:21:38;11.40;99.90
17170;DHT22;8700;48.222;16.342;2023-04-09T09:24:59;11.30;99.90
17170;DHT22;8700;48.222;16.342;2023-04-09T09:28:20;11.40;99.90
17170;DHT22;8700;48.222;16.342;2023-04-09T09:31:45;11.60;99.90
17170;DHT22;8700;48.222;16.342;2023-04-09T09:35:08;11.80;99.90
17170;DHT22;8700;48.222;16.342;2023-04-09T09:38:31;12.00;99.90
17170;DHT22;8700;48.222;16.342;2023-04-09T09:42:06;12.30;99.90
17170;DHT22;8700;48.222;16.342;2023-04-09T09:45:28;12.70;99.90
17170;DHT22;8700;48.222;16.342;2023-04-09T09:48:50;12.90;99.90
17170;DHT22;8700;48.222;16.342;2023-04-09T09:52:11;12.90;99.90
17170;DHT22;8700;48.222;16.342;2023-04-09T09:55:39;13.40;99.90
17170;DHT22;8700;48.222;16.342;2023-04-09T09:59:05;14.00;99.90
17170;DHT22;8700;48.222;16.342;2023-04-09T10:02:32;14.30;99.90
17170;DHT22;8700;48.222;16.342;2023-04-09T10:05:57;14.20;99.90
17170;DHT22;8700;48.222;16.342;2023-04-09T10:09:20;14.10;99.90
17170;DHT22;8700;48.222;16.342;2023-04-09T10:12:43;14.10;99.90
17170;DHT22;8700;48.222;16.342;2023-04-09T10:16:06;13.50;99.90
17170;DHT22;8700;48.222;16.342;2023-04-09T10:19:27;13.30;99.90
17170;DHT22;8700;48.222;16.342;2023-04-09T10:22:49;13.60;99.90
17170;DHT22;8700;48.222;16.342;2023-04-09T10:26:11;14.00;99.90
17170;DHT22;8700;48.222;16.342;2023-04-09T10:29:41;14.70;99.90
17170;DHT22;8700;48.222;16.342;2023-04-09T10:33:13;14.60;99.90
17170;DHT22;8700;48.222;16.342;2023-04-09T10:36:35;15.20;99.90
17170;DHT22;8700;48.222;16.342;2023-04-09T10:39:56;15.60;99.90
17170;DHT22;8700;48.222;16.342;2023-04-09T10:43:18;15.40;99.90
17170;DHT22;8700;48.222;16.342;2023-04-09T10:46:42;15.40;99.90
17170;DHT22;8700;48.222;16.342;2023-04-09T10:50:15;15.40;99.90
17170;DHT22;8700;48.222;16.342;2023-04-09T10:53:37;15.30;99.90
17170;DHT22;8700;48.222;16.342;2023-04-09T10:57:09;14.90;99.90
17170;DHT22;8700;48.222;16.342;2023-04-09T11:00:32;14.40;99.90
17170;DHT22;8700;48.222;16.342;2023-04-09T11:04:19;14.60;99.90
17170;DHT22;8700;48.222;16.342;2023-04-09T11:07:44;14.20;99.90
17170;DHT22;8700;48.222;16.342;2023-04-09T11:11:06;13.80;99.90
17170;DHT22;8700;48.222;16.342;2023-04-09T11:14:28;13.70;99.90
17170;DHT22;8700;48.222;16.342;2023-04-09T11:17:49;13.60;99.90
17170;DHT22;8700;48.222;16.342;2023-04-09T11:21:12;13.70;99.90
17170;DHT22;8700;48.222;16.342;2023-04-09T11:24:39;13.50;99.90
17170;DHT22;8700;48.222;16.342;2023-04-09T11:28:02;13.50;99.90
17170;DHT22;8700;48.222;16.342;2023-04-09T11:31:26;13.10;99.90
17170;DHT22;8700;48.222;16.342;2023-04-09T11:34:51;13.00;99.90
17170;DHT22;8700;48.222;16.342;2023-04-09T11:38:14;13.00;99.90
17170;DHT22;8700;48.222;16.342;2023-04-09T11:41:36;13.30;99.90
17170;DHT22;8700;48.222;16.342;2023-04-09T11:44:58;14.20;99.90
17170;DHT22;8700;48.222;16.342;2023-04-09T11:48:20;14.80;99.90
17170;DHT22;8700;48.222;16.342;2023-04-09T11:51:43;14.80;99.90
17170;DHT22;8700;48.222;16.342;2023-04-09T11:55:07;14.90;99.90
17170;DHT22;8700;48.222;16.342;2023-04-09T11:58:29;14.80;99.90
17170;DHT22;8700;48.222;16.342;2023-04-09T12:01:50;14.60;99.90
17170;DHT22;8700;48.222;16.342;2023-04-09T12:05:19;14.50;99.90
17170;DHT22;8700;48.222;16.342;2023-04-09T12:08:41;14.30;99.90
17170;DHT22;8700;48.222;16.342;2023-04-09T12:12:07;14.20;99.90
17170;DHT22;8700;48.222;16.342;2023-04-09T12:15:32;14.10;99.90
17170;DHT22;8700;48.222;16.342;2023-04-09T12:18:53;14.10;99.90
17170;DHT22;8700;48.222;16.342;2023-04-09T12:22:15;14.30;99.90
17170;DHT22;8700;48.222;16.342;2023-04-09T12:25:37;14.30;99.50
17170;DHT22;8700;48.222;16.342;2023-04-09T12:29:01;14.10;99.70
17170;DHT22;8700;48.222;16.342;2023-04-09T12:32:22;13.90;99.40
17170;DHT22;8700;48.222;16.342;2023-04-09T12:35:43;14.00;99.70
17170;DHT22;8700;48.222;16.342;2023-04-09T12:39:04;14.00;98.10
17170;DHT22;8700;48.222;16.342;2023-04-09T12:42:26;13.70;98.80
17170;DHT22;8700;48.222;16.342;2023-04-09T12:45:48;13.70;99.90
17170;DHT22;8700;48.222;16.342;2023-04-09T12:49:11;13.60;99.90
17170;DHT22;8700;48.222;16.342;2023-04-09T12:52:33;13.20;99.90
17170;DHT22;8700;48.222;16.342;2023-04-09T12:55:54;13.20;99.90
17170;DHT22;8700;48.222;16.342;2023-04-09T12:59:15;12.90;99.90
17170;DHT22;8700;48.222;16.342;2023-04-09T13:02:38;12.80;99.90
17170;DHT22;8700;48.222;16.342;2023-04-09T13:05:59;12.80;99.90
17170;DHT22;8700;48.222;16.342;2023-04-09T13:09:20;12.80;99.90
17170;DHT22;8700;48.222;16.342;2023-04-09T13:12:41;12.70;99.90
17170;DHT22;8700;48.222;16.342;2023-04-09T13:16:03;12.80;99.90
17170;DHT22;8700;48.222;16.342;2023-04-09T13:19:26;12.80;99.90
17170;DHT22;8700;48.222;16.342;2023-04-09T13:22:48;12.70;99.90
17170;DHT22;8700;48.222;16.342;2023-04-09T13:26:09;12.50;99.90
17170;DHT22;8700;48.222;16.342;2023-04-09T13:29:31;12.60;99.90
17170;DHT22;8700;48.222;16.342;2023-04-09T13:32:52;12.80;99.90
17170;DHT22;8700;48.222;16.342;2023-04-09T13:36:15;12.90;99.90
17170;DHT22;8700;48.222;16.342;2023-04-09T13:39:36;13.10;99.90
17170;DHT22;8700;48.222;16.342;2023-04-09T13:42:57;13.00;99.90
17170;DHT22;8700;48.222;16.342;2023-04-09T13:46:18;12.90;99.90
17170;DHT22;8700;48.222;16.342;2023-04-09T13:49:40;13.20;99.90
17170;DHT22;8700;48.222;16.342;2023-04-09T13:53:03;13.10;99.90
17170;DHT22;8700;48.222;16.342;2023-04-09T13:56:24;13.10;99.90
17170;DHT22;8700;48.222;16.342;2023-04-09T13:59:46;13.10;99.90
17170;DHT22;8700;48.222;16.342;2023-04-09T14:03:07;13.00;99.90
17170;DHT22;8700;48.222;16.342;2023-04-09T14:06:28;13.20;99.90
17170;DHT22;8700;48.222;16.342;2023-04-09T14:09:51;13.50;99.90
17170;DHT22;8700;48.222;16.342;2023-04-09T14:13:12;13.60;99.90
17170;DHT22;8700;48.222;16.342;2023-04-09T14:16:34;13.60;99.90
17170;DHT22;8700;48.222;16.342;2023-04-09T14:19:55;13.60;99.90
17170;DHT22;8700;48.222;16.342;2023-04-09T14:23:17;13.70;99.90
17170;DHT22;8700;48.222;16.342;2023-04-09T14:26:40;13.70;99.90
17170;DHT22;8700;48.222;16.342;2023-04-09T14:30:01;13.60;99.90
17170;DHT22;8700;48.222;16.342;2023-04-09T14:33:23;13.40;99.90
17170;DHT22;8700;48.222;16.342;2023-04-09T14:36:44;13.40;99.90
17170;DHT22;8700;48.222;16.342;2023-04-09T14:40:06;13.40;99.90
17170;DHT22;8700;48.222;16.342;2023-04-09T14:43:30;13.30;99.90
17170;DHT22;8700;48.222;16.342;2023-04-09T14:46:52;13.30;99.90
17170;DHT22;8700;48.222;16.342;2023-04-09T14:50:15;13.20;99.90
17170;DHT22;8700;48.222;16.342;2023-04-09T14:53:36;12.90;99.90
17170;DHT22;8700;48.222;16.342;2023-04-09T14:56:57;12.70;99.90
17170;DHT22;8700;48.222;16.342;2023-04-09T15:00:22;12.60;99.90
17170;DHT22;8700;48.222;16.342;2023-04-09T15:03:44;12.60;99.90
17170;DHT22;8700;48.222;16.342;2023-04-09T15:07:05;12.70;99.90
17170;DHT22;8700;48.222;16.342;2023-04-09T15:10:26;12.60;99.90
17170;DHT22;8700;48.222;16.342;2023-04-09T15:13:47;12.60;99.90
17170;DHT22;8700;48.222;16.342;2023-04-09T15:17:11;12.60;99.90
17170;DHT22;8700;48.222;16.342;2023-04-09T15:20:35;12.60;99.90
17170;DHT22;8700;48.222;16.342;2023-04-09T15:23:59;12.50;99.90
17170;DHT22;8700;48.222;16.342;2023-04-09T15:27:21;12.40;99.90
17170;DHT22;8700;48.222;16.342;2023-04-09T15:30:42;12.50;99.90
17170;DHT22;8700;48.222;16.342;2023-04-09T15:34:04;12.40;99.90
17170;DHT22;8700;48.222;16.342;2023-04-09T15:37:26;12.40;99.90
17170;DHT22;8700;48.222;16.342;2023-04-09T15:40:47;12.40;99.90
17170;DHT22;8700;48.222;16.342;2023-04-09T15:44:08;12.40;99.90
17170;DHT22;8700;48.222;16.342;2023-04-09T15:47:30;12.40;99.90
17170;DHT22;8700;48.222;16.342;2023-04-09T15:50:52;12.30;99.90
17170;DHT22;8700;48.222;16.342;2023-04-09T15:54:14;12.30;99.90
17170;DHT22;8700;48.222;16.342;2023-04-09T15:57:35;12.20;99.90
17170;DHT22;8700;48.222;16.342;2023-04-09T16:00:57;12.30;99.90
17170;DHT22;8700;48.222;16.342;2023-04-09T16:04:18;12.20;99.90
17170;DHT22;8700;48.222;16.342;2023-04-09T16:07:44;12.00;99.90
17170;DHT22;8700;48.222;16.342;2023-04-09T16:11:06;12.00;99.90
17170;DHT22;8700;48.222;16.342;2023-04-09T16:14:28;12.00;99.90
17170;DHT22;8700;48.222;16.342;2023-04-09T16:17:50;12.00;99.90
17170;DHT22;8700;48.222;16.342;2023-04-09T16:21:12;12.10;99.90
17170;DHT22;8700;48.222;16.342;2023-04-09T16:24:37;12.00;99.90
17170;DHT22;8700;48.222;16.342;2023-04-09T16:28:00;12.00;99.90
17170;DHT22;8700;48.222;16.342;2023-04-09T16:31:22;11.80;99.90
17170;DHT22;8700;48.222;16.342;2023-04-09T16:34:44;11.60;99.90
17170;DHT22;8700;48.222;16.342;2023-04-09T16:38:06;11.60;99.90
17170;DHT22;8700;48.222;16.342;2023-04-09T16:41:29;11.60;99.90
17170;DHT22;8700;48.222;16.342;2023-04-09T16:44:54;11.40;99.90
17170;DHT22;8700;48.222;16.342;2023-04-09T16:48:16;11.40;99.90
17170;DHT22;8700;48.222;16.342;2023-04-09T16:51:38;11.30;99.90
17170;DHT22;8700;48.222;16.342;2023-04-09T16:54:59;11.30;99.90
17170;DHT22;8700;48.222;16.342;2023-04-09T16:58:22;11.20;99.90
17170;DHT22;8700;48.222;16.342;2023-04-09T17:01:44;11.10;99.90
17170;DHT22;8700;48.222;16.342;2023-04-09T17:05:06;11.20;99.90
17170;DHT22;8700;48.222;16.342;2023-04-09T17:08:28;11.30;99.90
17170;DHT22;8700;48.222;16.342;2023-04-09T17:11:49;11.30;99.90
17170;DHT22;8700;48.222;16.342;2023-04-09T17:15:14;11.30;99.90
17170;DHT22;8700;48.222;16.342;2023-04-09T17:18:38;11.30;99.90
17170;DHT22;8700;48.222;16.342;2023-04-09T17:22:00;11.10;99.90
17170;DHT22;8700;48.222;16.342;2023-04-09T17:25:21;11.10;99.90
17170;DHT22;8700;48.222;16.342;2023-04-09T17:28:43;11.00;99.90
17170;DHT22;8700;48.222;16.342;2023-04-09T17:32:06;11.00;99.90
17170;DHT22;8700;48.222;16.342;2023-04-09T17:35:28;11.10;99.90
17170;DHT22;8700;48.222;16.342;2023-04-09T17:38:49;11.10;99.90
17170;DHT22;8700;48.222;16.342;2023-04-09T17:42:11;11.10;99.90
17170;DHT22;8700;48.222;16.342;2023-04-09T17:45:33;11.00;99.90
17170;DHT22;8700;48.222;16.342;2023-04-09T17:48:56;10.90;99.90
17170;DHT22;8700;48.222;16.342;2023-04-09T17:52:17;10.70;99.90
17170;DHT22;8700;48.222;16.342;2023-04-09T17:55:45;10.70;99.90
17170;DHT22;8700;48.222;16.342;2023-04-09T17:59:07;10.60;99.90
17170;DHT22;8700;48.222;16.342;2023-04-09T18:02:28;10.60;99.90
17170;DHT22;8700;48.222;16.342;2023-04-09T18:05:51;10.70;99.90
17170;DHT22;8700;48.222;16.342;2023-04-09T18:09:13;10.60;99.90
17170;DHT22;8700;48.222;16.342;2023-04-09T18:12:34;10.50;99.90
17170;DHT22;8700;48.222;16.342;2023-04-09T18:15:55;10.50;99.90
17170;DHT22;8700;48.222;16.342;2023-04-09T18:19:16;10.50;99.90
17170;DHT22;8700;48.222;16.342;2023-04-09T18:22:39;10.40;99.90
17170;DHT22;8700;48.222;16.342;2023-04-09T18:26:00;10.40;99.90
17170;DHT22;8700;48.222;16.342;2023-04-09T18:29:22;10.50;99.90
17170;DHT22;8700;48.222;16.342;2023-04-09T18:32:45;10.40;99.90
17170;DHT22;8700;48.222;16.342;2023-04-09T18:36:07;10.40;99.90
17170;DHT22;8700;48.222;16.342;2023-04-09T18:39:30;10.30;99.90
17170;DHT22;8700;48.222;16.342;2023-04-09T18:42:53;10.30;99.90
17170;DHT22;8700;48.222;16.342;2023-04-09T18:46:14;10.30;99.90
17170;DHT22;8700;48.222;16.342;2023-04-09T18:49:35;10.40;99.90
17170;DHT22;8700;48.222;16.342;2023-04-09T18:52:56;10.10;99.90
17170;DHT22;8700;48.222;16.342;2023-04-09T18:56:19;10.00;99.90
17170;DHT22;8700;48.222;16.342;2023-04-09T18:59:41;10.00;99.90
17170;DHT22;8700;48.222;16.342;2023-04-09T19:03:04;10.10;99.90
17170;DHT22;8700;48.222;16.342;2023-04-09T19:06:25;10.10;99.90
17170;DHT22;8700;48.222;16.342;2023-04-09T19:09:47;10.30;99.90
17170;DHT22;8700;48.222;16.342;2023-04-09T19:13:09;10.20;99.90
17170;DHT22;8700;48.222;16.342;2023-04-09T19:16:31;10.10;99.90
17170;DHT22;8700;48.222;16.342;2023-04-09T19:19:52;9.90;99.90
17170;DHT22;8700;48.222;16.342;2023-04-09T19:23:14;9.80;99.90
17170;DHT22;8700;48.222;16.342;2023-04-09T19:26:35;9.80;99.90
17170;DHT22;8700;48.222;16.342;2023-04-09T19:29:59;9.80;99.90
17170;DHT22;8700;48.222;16.342;2023-04-09T19:33:21;9.90;99.90
17170;DHT22;8700;48.222;16.342;2023-04-09T19:36:42;9.80;99.90
17170;DHT22;8700;48.222;16.342;2023-04-09T19:40:04;9.70;99.90
17170;DHT22;8700;48.222;16.342;2023-04-09T19:43:26;9.70;99.90
17170;DHT22;8700;48.222;16.342;2023-04-09T19:46:48;9.80;99.90
17170;DHT22;8700;48.222;16.342;2023-04-09T19:50:10;9.90;99.90
17170;DHT22;8700;48.222;16.342;2023-04-09T19:53:31;9.70;99.90
17170;DHT22;8700;48.222;16.342;2023-04-09T19:57:00;9.70;99.90
17170;DHT22;8700;48.222;16.342;2023-04-09T20:00:26;9.70;99.90
17170;DHT22;8700;48.222;16.342;2023-04-09T20:03:49;9.50;99.90
17170;DHT22;8700;48.222;16.342;2023-04-09T20:07:10;9.50;99.90
17170;DHT22;8700;48.222;16.342;2023-04-09T20:10:32;9.30;99.90
17170;DHT22;8700;48.222;16.342;2023-04-09T20:13:58;9.20;99.90
17170;DHT22;8700;48.222;16.342;2023-04-09T20:17:26;9.30;99.90
17170;DHT22;8700;48.222;16.342;2023-04-09T20:20:49;9.40;99.90
17170;DHT22;8700;48.222;16.342;2023-04-09T20:24:11;9.50;99.90
17170;DHT22;8700;48.222;16.342;2023-04-09T20:27:32;9.50;99.90
17170;DHT22;8700;48.222;16.342;2023-04-09T20:30:54;9.60;99.90
17170;DHT22;8700;48.222;16.342;2023-04-09T20:34:15;9.40;99.90
17170;DHT22;8700;48.222;16.342;2023-04-09T20:37:38;9.20;99.90
17170;DHT22;8700;48.222;16.342;2023-04-09T20:40:59;9.10;99.90
17170;DHT22;8700;48.222;16.342;2023-04-09T20:44:20;9.10;99.90
17170;DHT22;8700;48.222;16.342;2023-04-09T20:47:43;9.10;99.90
17170;DHT22;8700;48.222;16.342;2023-04-09T20:51:07;9.10;99.90
17170;DHT22;8700;48.222;16.342;2023-04-09T20:54:31;9.20;99.90
17170;DHT22;8700;48.222;16.342;2023-04-09T20:57:52;9.20;99.90
17170;DHT22;8700;48.222;16.342;2023-04-09T21:01:15;9.20;99.90
17170;DHT22;8700;48.222;16.342;2023-04-09T21:04:36;9.20;99.90
17170;DHT22;8700;48.222;16.342;2023-04-09T21:07:57;9.20;99.90
17170;DHT22;8700;48.222;16.342;2023-04-09T21:11:20;9.20;99.90
17170;DHT22;8700;48.222;16.342;2023-04-09T21:14:41;9.20;99.90
17170;DHT22;8700;48.222;16.342;2023-04-09T21:18:03;9.10;99.90
17170;DHT22;8700;48.222;16.342;2023-04-09T21:21:24;9.20;99.90
17170;DHT22;8700;48.222;16.342;2023-04-09T21:24:50;9.20;99.90
17170;DHT22;8700;48.222;16.342;2023-04-09T21:28:13;9.10;99.90